createdAt,value
2019-03-29T00:02:29.269Z,13.83
2019-03-29T00:04:59.343Z,13.58
2019-03-29T00:07:39.580Z,13.40
2019-03-29T00:10:01.224Z,12.67
2019-03-29T00:12:32.246Z,13.93
2019-03-29T00:15:02.383Z,13.30
2019-03-29T00:17:34.130Z,13.20
2019-03-29T00:20:06.219Z,12.30
2019-03-29T00:22:36.271Z,12.35
2019-03-29T00:25:07.175Z,12.63
2019-03-29T00:27:37.643Z,13.05
2019-03-29T00:30:07.805Z,13.55
2019-03-29T00:32:37.868Z,13.00
2019-03-29T00:35:08.382Z,14.43
2019-03-29T00:37:52.512Z,13.93
2019-03-29T00:40:10.289Z,13.53
2019-03-29T00:42:40.377Z,13.20
2019-03-29T00:45:11.199Z,12.65
2019-03-29T00:47:41.236Z,13.58
2019-03-29T00:50:11.371Z,13.33
2019-03-29T00:52:41.458Z,14.18
2019-03-29T00:55:11.528Z,13.80
2019-03-29T00:57:41.618Z,13.60
2019-03-29T01:00:12.033Z,13.73
2019-03-29T01:02:42.185Z,13.62
2019-03-29T01:05:12.346Z,12.68
2019-03-29T01:07:42.458Z,13.22
2019-03-29T01:10:12.603Z,13.48
2019-03-29T01:12:42.721Z,13.38
2019-03-29T01:15:12.992Z,13.65
2019-03-29T01:17:43.044Z,13.20
2019-03-29T01:20:13.326Z,13.18
2019-03-29T01:22:43.391Z,13.23
2019-03-29T01:25:13.747Z,12.78
2019-03-29T01:27:43.810Z,12.73
2019-03-29T01:30:13.974Z,13.05
2019-03-29T01:32:44.052Z,12.93
2019-03-29T01:35:14.241Z,12.50
2019-03-29T01:37:44.308Z,14.23
2019-03-29T01:40:15.510Z,14.03
2019-03-29T01:42:45.589Z,13.75
2019-03-29T01:45:16.710Z,13.55
2019-03-29T01:47:46.776Z,13.83
2019-03-29T01:50:17.655Z,13.75
2019-03-29T01:52:47.746Z,13.68
2019-03-29T01:55:17.823Z,13.32
2019-03-29T01:57:47.916Z,13.62
2019-03-29T02:00:31.053Z,13.60
2019-03-29T02:03:01.224Z,13.72
2019-03-29T02:05:31.362Z,13.00
2019-03-29T02:08:01.469Z,13.32
2019-03-29T02:10:32.762Z,13.03
2019-03-29T02:13:02.874Z,14.10
2019-03-29T02:15:32.948Z,13.22
2019-03-29T02:18:03.062Z,13.18
2019-03-29T02:20:34.199Z,13.58
2019-03-29T02:23:04.361Z,13.10
2019-03-29T02:25:34.464Z,13.30
2019-03-29T02:28:04.629Z,13.50
2019-03-29T02:30:34.691Z,13.20
2019-03-29T02:33:04.766Z,13.93
2019-03-29T02:35:34.845Z,13.93
2019-03-29T02:38:04.971Z,13.13
2019-03-29T02:40:35.022Z,13.65
2019-03-29T02:43:05.146Z,13.48
2019-03-29T02:45:35.207Z,12.85
2019-03-29T02:48:05.437Z,13.22
2019-03-29T02:50:36.658Z,13.10
2019-03-29T02:53:06.920Z,12.90
2019-03-29T02:55:37.006Z,13.43
2019-03-29T02:58:07.167Z,12.80
2019-03-29T03:00:37.247Z,13.65
2019-03-29T03:03:07.318Z,14.07
2019-03-29T03:05:37.428Z,14.50
2019-03-29T03:08:07.497Z,13.68
2019-03-29T03:10:37.643Z,14.78
2019-03-29T03:13:07.739Z,14.25
2019-03-29T03:15:37.831Z,15.00
2019-03-29T03:18:07.892Z,14.10
2019-03-29T03:20:37.994Z,13.22
2019-03-29T03:23:08.079Z,14.40
2019-03-29T03:25:38.179Z,14.70
2019-03-29T03:28:08.254Z,14.40
2019-03-29T03:30:38.521Z,13.80
2019-03-29T03:33:08.841Z,14.07
2019-03-29T03:35:38.907Z,13.90
2019-03-29T03:38:08.996Z,13.50
2019-03-29T03:40:39.057Z,13.03
2019-03-29T03:43:09.135Z,13.60
2019-03-29T03:45:39.208Z,13.48
2019-03-29T03:48:09.360Z,14.05
2019-03-29T03:50:43.077Z,14.28
2019-03-29T03:53:13.142Z,14.60
2019-03-29T03:55:43.588Z,14.05
2019-03-29T03:58:13.925Z,14.50
2019-03-29T04:00:57.938Z,14.90
2019-03-29T04:03:28.536Z,14.80
2019-03-29T04:05:58.920Z,13.90
2019-03-29T04:08:29.087Z,15.78
2019-03-29T04:10:59.245Z,15.40
2019-03-29T04:13:29.329Z,14.65
2019-03-29T04:15:59.397Z,14.85
2019-03-29T04:18:29.476Z,13.48
2019-03-29T04:20:59.559Z,13.62
2019-03-29T04:23:29.639Z,15.08
2019-03-29T04:25:59.728Z,14.30
2019-03-29T04:28:29.845Z,13.80
2019-03-29T04:30:59.921Z,14.45
2019-03-29T04:33:30.000Z,13.80
2019-03-29T04:36:00.076Z,14.80
2019-03-29T04:38:30.154Z,15.20
2019-03-29T04:41:00.360Z,14.20
2019-03-29T04:43:30.472Z,13.40
2019-03-29T04:46:00.575Z,14.70
2019-03-29T04:48:30.699Z,14.23
2019-03-29T04:51:00.792Z,13.90
2019-03-29T04:53:30.896Z,13.83
2019-03-29T04:56:01.017Z,14.97
2019-03-29T04:58:31.130Z,14.50
2019-03-29T05:01:01.194Z,15.35
2019-03-29T05:03:31.279Z,15.90
2019-03-29T05:06:01.497Z,15.50
2019-03-29T05:08:31.515Z,16.03
2019-03-29T05:11:01.626Z,15.17
2019-03-29T05:13:31.698Z,15.75
2019-03-29T05:16:02.701Z,15.83
2019-03-29T05:18:32.752Z,15.58
2019-03-29T05:21:02.860Z,15.48
2019-03-29T05:23:32.929Z,15.90
2019-03-29T05:26:03.104Z,16.50
2019-03-29T05:28:33.252Z,14.80
2019-03-29T05:31:03.315Z,15.53
2019-03-29T05:33:33.375Z,15.40
2019-03-29T05:36:03.442Z,14.90
2019-03-29T05:38:33.549Z,15.80
2019-03-29T05:41:04.768Z,15.23
2019-03-29T05:43:35.934Z,15.10
2019-03-29T05:46:06.024Z,14.30
2019-03-29T05:48:36.338Z,15.37
2019-03-29T05:51:06.390Z,16.15
2019-03-29T05:53:36.470Z,14.18
2019-03-29T05:56:06.658Z,15.72
2019-03-29T05:58:36.794Z,15.15
2019-03-29T06:01:06.931Z,15.67
2019-03-29T06:03:37.002Z,17.93
2019-03-29T06:06:07.116Z,16.30
2019-03-29T06:08:37.188Z,15.18
2019-03-29T06:11:08.503Z,16.37
2019-03-29T06:13:38.594Z,15.93
2019-03-29T06:16:08.666Z,15.45
2019-03-29T06:18:38.789Z,15.58
2019-03-29T06:21:08.861Z,14.95
2019-03-29T06:23:38.971Z,15.10
2019-03-29T06:26:09.040Z,16.77
2019-03-29T06:28:39.240Z,16.52
2019-03-29T06:31:09.526Z,16.50
2019-03-29T06:33:39.851Z,17.57
2019-03-29T06:36:11.198Z,17.40
2019-03-29T06:38:42.665Z,17.80
2019-03-29T06:41:12.724Z,17.50
2019-03-29T06:43:42.816Z,18.00
2019-03-29T06:46:12.869Z,17.92
2019-03-29T06:48:42.956Z,18.10
2019-03-29T06:51:13.008Z,17.87
2019-03-29T06:53:43.099Z,18.42
2019-03-29T06:56:13.168Z,18.10
2019-03-29T06:58:43.290Z,19.42
2019-03-29T07:01:13.440Z,19.05
2019-03-29T07:03:43.510Z,19.32
2019-03-29T07:06:13.568Z,18.82
2019-03-29T07:08:43.644Z,18.82
2019-03-29T07:11:17.803Z,19.40
2019-03-29T07:13:56.735Z,18.17
2019-03-29T07:16:17.256Z,19.80
2019-03-29T07:18:47.316Z,19.50
2019-03-29T07:21:21.742Z,19.15
2019-03-29T07:23:50.619Z,18.98
2019-03-29T07:26:20.697Z,19.42
2019-03-29T07:28:50.756Z,18.75
2019-03-29T07:31:20.834Z,19.17
2019-03-29T07:33:50.893Z,18.80
2019-03-29T07:36:20.969Z,19.40
2019-03-29T07:38:51.088Z,18.40
2019-03-29T07:41:31.590Z,17.98
2019-03-29T07:43:53.966Z,19.00
2019-03-29T07:46:24.034Z,18.07
2019-03-29T07:48:54.102Z,18.42
2019-03-29T07:51:24.175Z,18.98
2019-03-29T07:53:54.241Z,17.35
2019-03-29T07:56:24.306Z,15.50
2019-03-29T07:58:54.370Z,15.83
2019-03-29T08:01:24.424Z,17.37
2019-03-29T08:03:54.484Z,17.15
2019-03-29T08:06:24.560Z,17.62
2019-03-29T08:08:54.616Z,16.45
2019-03-29T08:11:26.492Z,15.45
2019-03-29T08:13:56.514Z,15.07
2019-03-29T08:16:26.598Z,15.60
2019-03-29T08:18:56.682Z,14.98
2019-03-29T08:21:26.770Z,14.80
2019-03-29T08:23:56.865Z,14.13
2019-03-29T08:26:26.928Z,15.38
2019-03-29T08:28:57.081Z,14.58
2019-03-29T08:31:27.131Z,14.30
2019-03-29T08:33:57.218Z,14.10
2019-03-29T08:36:27.262Z,14.00
2019-03-29T08:38:57.330Z,13.68
2019-03-29T08:41:27.418Z,13.75
2019-03-29T08:43:57.476Z,14.10
2019-03-29T08:46:27.555Z,15.40
2019-03-29T08:48:57.659Z,13.55
2019-03-29T08:51:27.728Z,14.50
2019-03-29T08:53:57.784Z,14.27
2019-03-29T08:56:28.039Z,13.78
2019-03-29T08:58:58.104Z,14.50
2019-03-29T09:01:28.163Z,13.60
2019-03-29T09:04:05.058Z,14.05
2019-03-29T09:06:30.540Z,14.90
2019-03-29T09:09:00.886Z,13.98
2019-03-29T09:11:32.632Z,13.68
2019-03-29T09:14:02.731Z,13.70
2019-03-29T09:16:32.794Z,12.65
2019-03-29T09:19:02.878Z,12.73
2019-03-29T09:21:33.014Z,13.63
2019-03-29T09:24:03.108Z,12.40
2019-03-29T09:26:33.186Z,13.30
2019-03-29T09:29:03.246Z,12.70
2019-03-29T09:31:33.322Z,12.85
2019-03-29T09:34:03.386Z,13.50
2019-03-29T09:36:33.447Z,12.68
2019-03-29T09:39:04.841Z,13.32
2019-03-29T09:41:34.923Z,12.80
2019-03-29T09:44:05.166Z,13.03
2019-03-29T09:46:35.212Z,12.60
2019-03-29T09:49:08.266Z,12.70
2019-03-29T09:51:37.129Z,13.40
2019-03-29T09:54:07.199Z,11.93
2019-03-29T09:56:39.003Z,12.90
2019-03-29T09:59:09.078Z,12.45
2019-03-29T10:01:39.139Z,12.60
2019-03-29T10:04:09.238Z,11.83
2019-03-29T10:06:39.290Z,11.80
2019-03-29T10:09:09.369Z,12.70
2019-03-29T10:11:39.456Z,13.28
2019-03-29T10:14:09.533Z,13.13
2019-03-29T10:16:39.614Z,13.45
2019-03-29T10:19:09.768Z,13.48
2019-03-29T10:21:39.813Z,14.25
2019-03-29T10:24:09.909Z,13.83
2019-03-29T10:26:40.009Z,12.90
2019-03-29T10:29:10.102Z,13.30
2019-03-29T10:31:40.144Z,11.88
2019-03-29T10:34:10.217Z,12.47
2019-03-29T10:36:40.303Z,13.32
2019-03-29T10:39:13.382Z,12.93
2019-03-29T10:41:43.522Z,12.95
2019-03-29T10:44:13.580Z,12.50
2019-03-29T10:46:43.640Z,13.05
2019-03-29T10:49:13.761Z,12.53
2019-03-29T10:51:43.817Z,13.83
2019-03-29T10:54:13.980Z,13.10
2019-03-29T10:56:44.030Z,14.23
2019-03-29T10:59:26.610Z,13.68
2019-03-29T11:01:45.845Z,14.78
2019-03-29T11:04:16.023Z,14.47
2019-03-29T11:06:46.076Z,14.73
2019-03-29T11:09:16.156Z,14.50
2019-03-29T11:11:46.198Z,14.50
2019-03-29T11:14:16.252Z,15.38
2019-03-29T11:16:46.337Z,15.23
2019-03-29T11:19:16.623Z,15.63
2019-03-29T11:21:46.852Z,14.80
2019-03-29T11:24:17.125Z,15.88
2019-03-29T11:26:47.308Z,14.30
2019-03-29T11:29:17.371Z,14.33
2019-03-29T11:31:47.496Z,14.90
2019-03-29T11:34:20.831Z,14.73
2019-03-29T11:36:52.450Z,14.20
2019-03-29T11:39:21.139Z,13.78
2019-03-29T11:41:51.247Z,13.60
2019-03-29T11:44:21.373Z,13.60
2019-03-29T11:46:51.432Z,13.72
2019-03-29T11:49:21.517Z,13.32
2019-03-29T11:51:51.623Z,13.47
2019-03-29T11:54:21.739Z,13.45
2019-03-29T11:56:51.856Z,13.28
2019-03-29T11:59:22.027Z,12.50
2019-03-29T12:01:52.120Z,12.20
2019-03-29T12:04:22.196Z,12.23
2019-03-29T12:06:52.270Z,12.13
2019-03-29T12:09:22.386Z,12.13
2019-03-29T12:11:52.470Z,13.20
2019-03-29T12:14:22.559Z,13.30
2019-03-29T12:16:52.675Z,13.00
2019-03-29T12:19:22.760Z,13.00
2019-03-29T12:21:52.873Z,13.50
2019-03-29T12:24:24.192Z,12.77
2019-03-29T12:26:55.097Z,12.50
2019-03-29T12:29:25.292Z,13.20
2019-03-29T12:31:55.354Z,13.03
2019-03-29T12:34:25.525Z,13.08
2019-03-29T12:36:55.680Z,13.83
2019-03-29T12:39:25.749Z,13.60
2019-03-29T12:41:55.860Z,13.68
2019-03-29T12:44:26.918Z,13.40
2019-03-29T12:46:56.991Z,13.72
2019-03-29T12:49:27.101Z,13.30
2019-03-29T12:51:57.268Z,13.90
2019-03-29T12:54:27.414Z,13.10
2019-03-29T12:56:57.507Z,12.37
2019-03-29T12:59:27.638Z,14.18
2019-03-29T13:01:57.815Z,13.70
2019-03-29T13:04:27.955Z,12.70
2019-03-29T13:06:58.083Z,13.50
2019-03-29T13:09:28.223Z,14.00
2019-03-29T13:11:58.405Z,14.70
2019-03-29T13:14:28.506Z,14.40
2019-03-29T13:16:58.577Z,13.27
2019-03-29T13:19:28.655Z,13.70
2019-03-29T13:21:58.851Z,14.60
2019-03-29T13:24:28.902Z,13.65
2019-03-29T13:27:00.076Z,14.37
2019-03-29T13:29:30.221Z,14.90
2019-03-29T13:32:00.293Z,14.60
2019-03-29T13:34:30.427Z,14.40
2019-03-29T13:37:00.579Z,13.70
2019-03-29T13:39:31.551Z,14.20
2019-03-29T13:42:01.691Z,13.98
2019-03-29T13:44:31.816Z,14.00
2019-03-29T13:47:01.891Z,14.10
2019-03-29T13:49:32.054Z,14.25
2019-03-29T13:52:02.190Z,14.73
2019-03-29T13:54:32.260Z,14.50
2019-03-29T13:57:02.383Z,15.03
2019-03-29T13:59:32.455Z,15.20
2019-03-29T14:02:02.560Z,13.90
2019-03-29T14:04:32.652Z,14.20
2019-03-29T14:07:02.793Z,14.30
2019-03-29T14:09:32.888Z,15.90
2019-03-29T14:12:03.098Z,14.80
2019-03-29T14:14:38.839Z,15.28
2019-03-29T14:17:09.004Z,15.05
2019-03-29T14:19:39.073Z,13.05
2019-03-29T14:22:09.230Z,14.00
2019-03-29T14:24:39.291Z,14.70
2019-03-29T14:27:09.375Z,14.45
2019-03-29T14:29:39.493Z,13.33
2019-03-29T14:32:09.587Z,13.50
2019-03-29T14:34:39.785Z,14.80
2019-03-29T14:37:09.859Z,13.70
2019-03-29T14:39:39.940Z,14.10
2019-03-29T14:42:12.610Z,13.90
2019-03-29T14:44:52.149Z,13.72
2019-03-29T14:47:13.619Z,13.75
2019-03-29T14:49:44.319Z,13.20
2019-03-29T14:52:14.420Z,13.23
2019-03-29T14:54:45.554Z,14.20
2019-03-29T14:57:15.639Z,16.55
2019-03-29T14:59:45.708Z,16.63
2019-03-29T15:02:15.903Z,17.77
2019-03-29T15:04:46.426Z,17.67
2019-03-29T15:07:16.595Z,16.42
2019-03-29T15:09:47.142Z,17.33
2019-03-29T15:12:17.224Z,16.73
2019-03-29T15:14:47.409Z,17.10
2019-03-29T15:17:17.503Z,16.80
2019-03-29T15:19:47.599Z,17.17
2019-03-29T15:22:17.723Z,17.32
2019-03-29T15:24:47.788Z,16.90
2019-03-29T15:27:17.904Z,17.15
2019-03-29T15:29:47.979Z,16.77
2019-03-29T15:32:18.059Z,16.52
2019-03-29T15:34:48.163Z,17.10
2019-03-29T15:37:18.246Z,17.33
2019-03-29T15:39:48.301Z,16.17
2019-03-29T15:42:20.515Z,16.83
2019-03-29T15:44:50.170Z,17.63
2019-03-29T15:47:20.323Z,17.50
2019-03-29T15:49:56.101Z,17.02
2019-03-29T15:52:22.177Z,18.30
2019-03-29T15:54:52.257Z,17.60
2019-03-29T15:57:22.336Z,16.97
2019-03-29T15:59:52.411Z,17.33
2019-03-29T16:02:22.776Z,17.35
2019-03-29T16:04:52.832Z,17.37
2019-03-29T16:07:22.908Z,17.50
2019-03-29T16:09:53.013Z,16.45
2019-03-29T16:12:23.092Z,17.77
2019-03-29T16:14:53.146Z,16.50
2019-03-29T16:17:24.278Z,16.28
2019-03-29T16:19:54.357Z,16.82
2019-03-29T16:22:24.410Z,17.82
2019-03-29T16:24:54.498Z,17.60
2019-03-29T16:27:25.279Z,17.50
2019-03-29T16:29:56.667Z,16.65
2019-03-29T16:32:26.780Z,16.97
2019-03-29T16:34:56.848Z,16.93
2019-03-29T16:37:26.920Z,17.70
2019-03-29T16:39:57.086Z,17.80
2019-03-29T16:42:27.416Z,17.82
2019-03-29T16:44:57.509Z,17.77
2019-03-29T16:47:27.612Z,18.25
2019-03-29T16:49:57.683Z,18.07
2019-03-29T16:52:27.827Z,17.47
2019-03-29T16:54:57.920Z,17.17
2019-03-29T16:57:28.032Z,18.10
2019-03-29T16:59:58.111Z,17.27
2019-03-29T17:02:28.272Z,18.20
2019-03-29T17:04:59.336Z,18.30
2019-03-29T17:07:29.417Z,17.73
2019-03-29T17:09:59.495Z,17.52
2019-03-29T17:12:29.595Z,17.05
2019-03-29T17:14:59.629Z,17.00
2019-03-29T17:17:29.706Z,17.77
2019-03-29T17:19:59.810Z,17.75
2019-03-29T17:22:29.884Z,18.00
2019-03-29T17:24:59.963Z,18.00
2019-03-29T17:27:30.426Z,17.80
2019-03-29T17:30:00.503Z,17.30
2019-03-29T17:32:31.358Z,17.60
2019-03-29T17:35:01.425Z,18.27
2019-03-29T17:37:31.491Z,18.05
2019-03-29T17:40:01.653Z,18.13
2019-03-29T17:42:31.716Z,17.80
2019-03-29T17:45:01.819Z,16.45
2019-03-29T17:47:31.927Z,17.87
2019-03-29T17:50:01.988Z,17.60
2019-03-29T17:52:32.455Z,17.60
2019-03-29T17:55:02.559Z,17.70
2019-03-29T17:57:32.694Z,19.03
2019-03-29T18:00:02.807Z,19.03
2019-03-29T18:02:32.954Z,19.33
2019-03-29T18:05:03.064Z,18.37
2019-03-29T18:07:33.315Z,18.37
2019-03-29T18:10:04.594Z,18.42
2019-03-29T18:12:34.613Z,17.55
2019-03-29T18:15:04.891Z,17.83
2019-03-29T18:17:34.974Z,17.90
2019-03-29T18:20:06.423Z,21.00
2019-03-29T18:22:36.507Z,22.07
2019-03-29T18:25:06.877Z,20.20
2019-03-29T18:27:36.985Z,22.77
2019-03-29T18:30:07.210Z,22.33
2019-03-29T18:32:37.359Z,19.95
2019-03-29T18:35:07.667Z,20.95
2019-03-29T18:37:37.822Z,21.30
2019-03-29T18:40:10.663Z,19.60
2019-03-29T18:42:40.777Z,20.02
2019-03-29T18:45:10.965Z,19.43
2019-03-29T18:47:41.099Z,20.27
2019-03-29T18:50:12.311Z,20.57
2019-03-29T18:52:42.871Z,21.53
2019-03-29T18:55:13.100Z,22.07
2019-03-29T18:57:43.167Z,22.32
2019-03-29T19:00:13.348Z,22.40
2019-03-29T19:02:43.432Z,21.90
2019-03-29T19:05:23.655Z,21.95
2019-03-29T19:07:53.732Z,24.13
2019-03-29T19:10:23.829Z,21.80
2019-03-29T19:12:53.909Z,21.80
2019-03-29T19:15:24.053Z,22.45
2019-03-29T19:17:54.270Z,23.70
2019-03-29T19:20:27.664Z,21.17
2019-03-29T19:22:56.303Z,22.30
2019-03-29T19:25:26.582Z,21.93
2019-03-29T19:27:56.756Z,22.27
2019-03-29T19:30:26.915Z,19.47
2019-03-29T19:32:56.989Z,23.35
2019-03-29T19:35:27.200Z,24.10
2019-03-29T19:37:57.283Z,23.65
2019-03-29T19:40:27.394Z,23.43
2019-03-29T19:42:57.966Z,23.18
2019-03-29T19:45:28.042Z,21.83
2019-03-29T19:47:58.140Z,22.05
2019-03-29T19:50:28.263Z,22.30
2019-03-29T19:52:58.356Z,21.52
2019-03-29T19:55:28.448Z,21.20
2019-03-29T19:57:58.551Z,21.13
2019-03-29T20:00:40.526Z,21.60
2019-03-29T20:03:10.871Z,23.13
2019-03-29T20:05:40.985Z,22.15
2019-03-29T20:08:11.085Z,21.90
2019-03-29T20:10:41.172Z,22.40
2019-03-29T20:13:11.282Z,21.57
2019-03-29T20:15:41.371Z,22.50
2019-03-29T20:18:11.533Z,21.60
2019-03-29T20:20:41.620Z,21.97
2019-03-29T20:23:11.679Z,22.30
2019-03-29T20:25:41.818Z,23.32
2019-03-29T20:28:11.899Z,22.78
2019-03-29T20:30:41.991Z,23.12
2019-03-29T20:33:13.426Z,22.43
2019-03-29T20:35:43.738Z,23.60
2019-03-29T20:38:13.800Z,24.77
2019-03-29T20:40:44.884Z,24.77
2019-03-29T20:43:14.942Z,26.40
2019-03-29T20:45:45.040Z,27.77
2019-03-29T20:48:15.138Z,29.10
2019-03-29T20:50:45.295Z,28.37
2019-03-29T20:53:15.425Z,27.30
2019-03-29T20:55:45.638Z,25.27
2019-03-29T20:58:15.703Z,24.63
2019-03-29T21:00:45.793Z,23.50
2019-03-29T21:03:15.928Z,24.00
2019-03-29T21:05:46.022Z,24.55
2019-03-29T21:08:16.127Z,23.90
2019-03-29T21:10:55.620Z,24.10
2019-03-29T21:13:17.968Z,23.98
2019-03-29T21:15:48.180Z,23.00
2019-03-29T21:18:18.231Z,23.38
2019-03-29T21:20:48.446Z,22.27
2019-03-29T21:23:18.506Z,21.87
2019-03-29T21:25:48.607Z,21.40
2019-03-29T21:28:18.684Z,20.80
2019-03-29T21:30:48.898Z,19.20
2019-03-29T21:33:18.958Z,20.10
2019-03-29T21:35:49.124Z,19.67
2019-03-29T21:38:19.240Z,19.25
2019-03-29T21:40:49.323Z,19.60
2019-03-29T21:43:19.486Z,20.90
2019-03-29T21:45:49.579Z,20.05
2019-03-29T21:48:28.481Z,19.50
2019-03-29T21:50:51.471Z,20.08
2019-03-29T21:53:22.919Z,19.40
2019-03-29T21:55:53.603Z,18.40
2019-03-29T21:58:23.994Z,18.50
2019-03-29T22:00:54.040Z,18.67
2019-03-29T22:03:24.168Z,17.67
2019-03-29T22:05:54.236Z,17.30
2019-03-29T22:08:24.348Z,16.97
2019-03-29T22:10:54.445Z,16.30
2019-03-29T22:13:24.545Z,16.17
2019-03-29T22:15:54.709Z,16.60
2019-03-29T22:18:37.397Z,17.12
2019-03-29T22:20:56.597Z,19.00
2019-03-29T22:23:26.667Z,19.80
2019-03-29T22:25:56.750Z,18.37
2019-03-29T22:28:26.831Z,18.90
2019-03-29T22:30:56.914Z,18.10
2019-03-29T22:33:27.029Z,19.52
2019-03-29T22:35:57.094Z,18.50
2019-03-29T22:38:27.178Z,17.30
2019-03-29T22:40:57.245Z,17.77
2019-03-29T22:43:27.343Z,17.87
2019-03-29T22:45:57.479Z,17.65
2019-03-29T22:48:27.645Z,19.05
2019-03-29T22:50:57.700Z,19.65
2019-03-29T22:53:27.777Z,21.70
2019-03-29T22:55:57.864Z,20.08
2019-03-29T22:58:28.627Z,20.05
2019-03-29T23:00:59.282Z,19.92
2019-03-29T23:03:29.686Z,20.77
2019-03-29T23:05:59.748Z,19.80
2019-03-29T23:08:29.818Z,19.65
2019-03-29T23:10:59.914Z,20.82
2019-03-29T23:13:31.613Z,20.82
2019-03-29T23:16:01.664Z,20.00
2019-03-29T23:18:31.779Z,20.90
2019-03-29T23:21:01.832Z,20.05
2019-03-29T23:23:31.933Z,20.90
2019-03-29T23:26:01.988Z,19.37
2019-03-29T23:28:32.093Z,19.87
2019-03-29T23:31:05.401Z,19.48
2019-03-29T23:33:33.952Z,19.92
2019-03-29T23:36:03.997Z,20.08
2019-03-29T23:38:34.142Z,19.90
2019-03-29T23:41:04.194Z,20.77
2019-03-29T23:43:34.249Z,21.15
2019-03-29T23:46:04.348Z,22.17
2019-03-29T23:48:34.410Z,20.60
2019-03-29T23:51:04.559Z,21.70
2019-03-29T23:53:34.623Z,20.00
2019-03-29T23:56:04.717Z,19.02
2019-03-29T23:58:34.862Z,18.70
